Time;durP1;ratioP1;P1;durP2;ratioP2;P2;SDS_P1;SDS_P2;PMS_P1;PMS_P2;Temp;Humidity;BMP_temperature;BMP_pressure;BME280_temperature;BME280_humidity;BME280_pressure;Samples;Min_cycle;Max_cycle;Signal;HPM_P1;HPM_P2
2024/01/02 00:00:23;;;;;;;;;0.00;0.00;;;;;10.88;93.23;99576.50;4976913;28;45509;-79
2024/01/02 00:02:49;;;;;;;;;0.33;0.00;;;;;10.89;93.82;99580.84;4977231;28;45370;-81
2024/01/02 00:05:15;;;;;;;;;0.00;0.00;;;;;10.81;93.47;99554.00;4977706;28;45334;-81
2024/01/02 00:07:40;;;;;;;;;0.00;0.00;;;;;10.89;93.04;99560.41;4977633;28;45237;-80
2024/01/02 00:10:06;;;;;;;;;0.00;0.00;;;;;10.97;93.96;99573.16;4976635;28;45231;-81
2024/01/02 00:12:31;;;;;;;;;0.33;0.00;;;;;11.00;92.84;99577.41;4978650;28;46298;-80
2024/01/02 00:14:57;;;;;;;;;0.00;0.00;;;;;10.98;92.89;99563.38;4996097;27;45359;-79
2024/01/02 00:17:22;;;;;;;;;0.00;0.00;;;;;11.03;93.40;99562.06;4977197;27;45338;-81
2024/01/02 00:19:47;;;;;;;;;0.00;0.00;;;;;11.07;92.96;99563.56;4976647;28;45576;-79
2024/01/02 00:22:13;;;;;;;;;0.00;0.00;;;;;11.08;93.48;99543.13;4976167;28;46381;-82
2024/01/02 00:24:38;;;;;;;;;0.00;0.00;;;;;11.09;93.23;99547.47;4991778;28;45341;-81
2024/01/02 00:27:04;;;;;;;;;0.00;0.00;;;;;11.07;93.22;99534.28;4976686;28;45229;-80
2024/01/02 00:29:29;;;;;;;;;0.00;0.00;;;;;11.09;93.25;99545.66;4978393;28;45525;-82
2024/01/02 00:31:54;;;;;;;;;0.00;0.00;;;;;11.03;92.93;99506.19;4976381;28;46118;-80
2024/01/02 00:34:20;;;;;;;;;0.00;0.00;;;;;11.05;93.90;99517.56;4977248;27;45461;-80
2024/01/02 00:36:45;;;;;;;;;0.00;0.00;;;;;11.06;93.41;99503.28;4976796;28;45449;-80
2024/01/02 00:39:10;;;;;;;;;0.00;0.00;;;;;11.09;93.34;99513.72;4976550;28;45531;-80
2024/01/02 00:41:36;;;;;;;;;0.00;0.00;;;;;11.06;93.58;99473.19;4991519;28;46922;-79
2024/01/02 00:44:01;;;;;;;;;0.00;0.00;;;;;11.08;93.55;99474.78;4978193;28;45367;-80
2024/01/02 00:46:26;;;;;;;;;0.00;0.00;;;;;11.12;93.58;99481.56;4997075;28;45229;-80
2024/01/02 00:48:52;;;;;;;;;0.00;0.00;;;;;11.15;93.10;99483.97;4982268;28;45341;-81
2024/01/02 00:51:17;;;;;;;;;0.00;0.00;;;;;11.10;92.75;99472.84;4978115;28;45480;-82
2024/01/02 00:53:42;;;;;;;;;0.00;0.00;;;;;11.19;92.58;99476.59;4987676;28;45338;-81
2024/01/02 00:56:08;;;;;;;;;0.00;0.00;;;;;11.26;92.81;99469.00;4997395;28;45470;-81
2024/01/02 00:58:33;;;;;;;;;0.00;0.00;;;;;11.20;92.52;99457.03;4991136;28;57988;-81
2024/01/02 01:00:59;;;;;;;;;0.00;0.00;;;;;11.27;92.31;99460.91;4989987;28;52059;-80
2024/01/02 01:03:24;;;;;;;;;0.00;0.00;;;;;11.30;92.08;99459.81;4980723;28;45493;-81
2024/01/02 01:05:50;;;;;;;;;0.00;0.00;;;;;11.34;92.06;99458.63;4982097;28;45320;-82
2024/01/02 01:08:15;;;;;;;;;0.00;0.00;;;;;11.36;91.67;99446.91;4996658;28;45561;-81
2024/01/02 01:10:40;;;;;;;;;0.00;0.00;;;;;11.38;91.89;99444.13;5010525;28;60076;-82
2024/01/02 01:13:06;;;;;;;;;0.00;0.00;;;;;11.38;91.91;99441.44;4995802;28;64104;-82
2024/01/02 01:15:31;;;;;;;;;0.00;0.00;;;;;11.33;92.13;99425.84;4996609;27;45293;-85
2024/01/02 01:17:56;;;;;;;;;0.00;0.00;;;;;11.40;92.20;99420.88;4995677;28;45396;-81
2024/01/02 01:20:21;;;;;;;;;0.00;0.00;;;;;11.29;91.87;99402.22;4994101;28;68463;-81
2024/01/02 01:22:47;;;;;;;;;0.00;0.00;;;;;11.40;92.32;99404.91;4975277;28;57626;-81
2024/01/02 01:25:12;;;;;;;;;0.00;0.00;;;;;11.39;92.13;99416.53;4978398;28;45361;-83
2024/01/02 01:27:37;;;;;;;;;0.00;0.00;;;;;11.34;92.61;99410.72;4977646;28;45608;-81
2024/01/02 01:30:03;;;;;;;;;0.00;0.00;;;;;11.36;93.21;99414.09;4975227;28;46033;-80
2024/01/02 01:32:28;;;;;;;;;0.00;0.00;;;;;11.34;93.16;99400.06;4975173;28;45659;-80
2024/01/02 01:34:54;;;;;;;;;0.00;0.00;;;;;11.34;93.55;99400.91;4975338;28;45410;-80
2024/01/02 01:37:19;;;;;;;;;0.00;0.00;;;;;11.30;93.91;99394.13;4976608;28;45596;-79
2024/01/02 01:39:45;;;;;;;;;0.33;0.00;;;;;11.28;93.72;99392.56;4975922;28;45842;-80
2024/01/02 01:42:10;;;;;;;;;0.00;0.00;;;;;11.30;94.44;99396.78;4976531;27;45520;-79
2024/01/02 01:44:35;;;;;;;;;0.00;0.00;;;;;11.28;94.62;99400.53;4976197;28;46003;-83
2024/01/02 01:47:03;;;;;;;;;0.00;0.00;;;;;11.22;94.64;99389.41;4975671;28;45919;-82
2024/01/02 01:49:29;;;;;;;;;0.00;0.00;;;;;11.20;94.65;99372.72;4974837;28;45499;-82
2024/01/02 01:51:55;;;;;;;;;0.00;0.00;;;;;11.18;94.32;99363.97;4974659;28;45311;-80
2024/01/02 01:54:22;;;;;;;;;0.00;0.00;;;;;11.10;94.55;99354.94;4979480;28;45482;-81
2024/01/02 01:56:47;;;;;;;;;0.00;0.00;;;;;11.28;94.33;99396.06;4995356;28;45215;-81
2024/01/02 01:59:14;;;;;;;;;0.00;0.00;;;;;11.30;94.31;99391.47;4994338;28;46268;-83
2024/01/02 02:01:42;;;;;;;;;0.00;0.00;;;;;11.28;94.04;99385.41;4994755;28;45353;-81
2024/01/02 02:04:08;;;;;;;;;0.33;0.00;;;;;11.30;94.42;99390.63;4994866;28;45309;-81
2024/01/02 02:06:33;;;;;;;;;0.00;0.00;;;;;11.33;94.92;99398.34;4994692;28;45559;-85
2024/01/02 02:08:58;;;;;;;;;0.00;0.00;;;;;11.32;94.55;99380.69;4994384;27;58686;-80
2024/01/02 02:11:25;;;;;;;;;0.00;0.00;;;;;11.32;94.90;99383.34;4979383;27;45436;-80
2024/01/02 02:13:51;;;;;;;;;0.00;0.00;;;;;11.30;95.41;99387.94;4974824;28;45464;-80
2024/01/02 02:16:16;;;;;;;;;0.00;0.00;;;;;11.23;94.98;99372.47;4990195;27;45351;-82
2024/01/02 02:18:42;;;;;;;;;0.00;0.00;;;;;11.33;94.92;99377.94;4974846;28;46615;-83
2024/01/02 02:21:07;;;;;;;;;0.00;0.00;;;;;11.32;94.94;99370.03;4976033;28;45332;-82
2024/01/02 02:23:33;;;;;;;;;0.00;0.00;;;;;11.30;94.89;99386.13;4990187;28;45405;-80
2024/01/02 02:25:58;;;;;;;;;0.00;0.00;;;;;11.26;95.48;99362.56;4990072;28;45630;-80
2024/01/02 02:28:23;;;;;;;;;0.00;0.00;;;;;11.29;94.93;99364.97;4975100;28;46501;-79
2024/01/02 02:30:49;;;;;;;;;0.00;0.00;;;;;11.35;94.45;99369.81;4974586;28;45304;-80
2024/01/02 02:33:14;;;;;;;;;2.00;0.00;;;;;11.27;94.13;99364.25;4974869;28;45424;-83
2024/01/02 02:35:39;;;;;;;;;0.00;0.00;;;;;11.32;94.52;99372.69;4974745;28;45614;-81
2024/01/02 02:38:05;;;;;;;;;2.00;0.00;;;;;11.33;94.14;99350.44;4973453;28;57413;-79
2024/01/02 02:40:30;;;;;;;;;0.00;0.00;;;;;11.40;93.96;99383.59;4974002;28;45488;-82
2024/01/02 02:42:55;;;;;;;;;0.00;0.00;;;;;11.41;93.72;99375.50;4974667;28;45409;-82
2024/01/02 02:45:21;;;;;;;;;0.00;0.00;;;;;11.46;94.16;99375.16;4975410;28;45484;-82
2024/01/02 02:47:46;;;;;;;;;0.00;0.00;;;;;11.48;93.91;99370.56;4974157;28;45405;-82
2024/01/02 02:50:11;;;;;;;;;1.00;0.00;;;;;11.52;93.54;99382.66;4974028;28;50697;-80
2024/01/02 02:52:37;;;;;;;;;1.00;0.00;;;;;11.50;93.34;99376.59;4974357;28;45260;-82
2024/01/02 02:55:03;;;;;;;;;2.00;1.00;;;;;11.57;93.26;99369.81;4984666;28;45566;-79
2024/01/02 02:57:29;;;;;;;;;0.00;0.00;;;;;11.60;92.96;99379.38;4993647;28;46014;-80
2024/01/02 02:59:54;;;;;;;;;0.00;0.00;;;;;11.51;92.40;99359.66;4994501;28;45353;-81
2024/01/02 03:02:19;;;;;;;;;0.00;0.00;;;;;11.64;92.41;99371.03;4990241;27;45450;-82
2024/01/02 03:04:44;;;;;;;;;0.00;0.00;;;;;11.63;91.95;99363.16;4981654;28;45441;-83
2024/01/02 03:07:10;;;;;;;;;0.00;0.00;;;;;11.56;92.08;99341.47;5002807;28;47090;-82
2024/01/02 03:09:36;;;;;;;;;0.00;0.00;;;;;11.68;91.87;99356.47;4992054;28;45538;-83
2024/01/02 03:12:03;;;;;;;;;1.00;0.00;;;;;11.68;91.92;99367.13;4993532;28;45249;-81
2024/01/02 03:14:28;;;;;;;;;0.00;0.00;;;;;11.64;91.44;99348.88;4993399;27;45327;-84
2024/01/02 03:16:53;;;;;;;;;0.00;0.00;;;;;11.67;92.40;99356.59;4995930;27;59903;-83
2024/01/02 03:19:19;;;;;;;;;0.33;0.00;;;;;11.66;91.42;99353.09;4982928;27;45236;-81
2024/01/02 03:21:45;;;;;;;;;0.00;0.00;;;;;11.59;91.36;99337.72;4978154;27;45871;-80
2024/01/02 03:24:10;;;;;;;;;0.00;0.00;;;;;11.70;91.10;99341.22;4977639;27;45593;-80
2024/01/02 03:26:36;;;;;;;;;0.00;0.00;;;;;11.71;91.08;99356.22;4978751;28;45402;-83
2024/01/02 03:29:01;;;;;;;;;0.00;0.00;;;;;11.69;90.83;99358.16;4997543;27;45440;-81
2024/01/02 03:31:26;;;;;;;;;1.00;0.00;;;;;11.72;91.14;99352.63;4998245;28;45390;-85
2024/01/02 03:33:52;;;;;;;;;3.00;0.00;;;;;11.74;90.92;99356.00;4996365;28;45367;-81
2024/01/02 03:36:19;;;;;;;;;0.00;0.00;;;;;11.76;91.05;99353.22;4994659;27;46322;-79
2024/01/02 03:38:45;;;;;;;;;0.00;0.00;;;;;11.74;90.83;99349.84;4996301;28;45359;-79
2024/01/02 03:41:11;;;;;;;;;0.00;0.00;;;;;11.71;90.82;99342.91;5011301;27;45329;-80
2024/01/02 03:43:36;;;;;;;;;0.00;0.00;;;;;11.68;90.83;99331.66;4996804;27;45323;-84
2024/01/02 03:46:01;;;;;;;;;0.00;0.00;;;;;11.68;90.81;99339.66;4997023;27;45388;-79
2024/01/02 03:48:27;;;;;;;;;0.00;0.00;;;;;11.74;90.10;99348.00;4985069;28;45399;-80
2024/01/02 03:50:53;;;;;;;;;0.00;0.00;;;;;11.78;90.06;99352.13;4981890;28;45294;-81
2024/01/02 03:53:18;;;;;;;;;0.00;0.00;;;;;11.79;90.20;99359.16;4983117;28;45353;-81
2024/01/02 03:55:43;;;;;;;;;0.00;0.00;;;;;11.77;89.74;99352.25;4992124;28;45173;-82
2024/01/02 03:58:08;;;;;;;;;0.00;0.00;;;;;11.73;89.64;99349.00;4995862;28;58758;-81
2024/01/02 04:00:35;;;;;;;;;0.00;0.00;;;;;11.80;89.64;99339.53;4978475;28;45377;-80
2024/01/02 04:03:00;;;;;;;;;0.00;0.00;;;;;11.78;89.56;99336.13;4977258;28;45612;-83
2024/01/02 04:05:26;;;;;;;;;0.00;0.00;;;;;11.76;89.53;99346.06;4976617;28;45313;-84
2024/01/02 04:07:51;;;;;;;;;0.00;0.00;;;;;11.75;89.66;99312.41;4976542;28;45397;-84
2024/01/02 04:10:17;;;;;;;;;0.00;0.00;;;;;11.74;89.52;99324.03;4976923;28;45662;-83
2024/01/02 04:12:42;;;;;;;;;0.00;0.00;;;;;11.78;89.51;99309.50;4976596;28;45511;-83
2024/01/02 04:15:08;;;;;;;;;1.00;0.00;;;;;11.76;89.47;99315.91;4976819;28;45387;-82
2024/01/02 04:17:33;;;;;;;;;0.00;0.00;;;;;11.72;89.97;99312.69;4977031;28;45440;-83
2024/01/02 04:19:58;;;;;;;;;0.00;0.00;;;;;11.77;89.50;99329.13;4976627;28;47919;-82
2024/01/02 04:22:25;;;;;;;;;0.00;0.00;;;;;11.74;89.92;99331.19;4983946;28;45405;-84
2024/01/02 04:24:50;;;;;;;;;0.00;0.00;;;;;11.72;90.29;99333.13;4976304;28;45519;-83
2024/01/02 04:27:15;;;;;;;;;0.00;0.00;;;;;11.72;89.95;99333.97;4983260;28;63091;-84
2024/01/02 04:29:41;;;;;;;;;0.00;0.00;;;;;11.68;90.40;99324.53;4996449;28;45212;-82
2024/01/02 04:32:06;;;;;;;;;0.00;0.00;;;;;11.75;90.07;99341.72;4975992;28;45473;-81
2024/01/02 04:34:31;;;;;;;;;0.00;0.00;;;;;11.71;90.33;99326.94;4975693;28;46553;-77
2024/01/02 04:36:57;;;;;;;;;0.00;0.00;;;;;11.73;90.24;99332.16;4976166;28;61016;-82
2024/01/02 04:39:22;;;;;;;;;0.00;0.00;;;;;11.74;90.56;99345.34;4981555;28;45442;-84
2024/01/02 04:41:48;;;;;;;;;0.00;0.00;;;;;11.68;90.87;99321.84;4995705;28;45394;-80
2024/01/02 04:44:13;;;;;;;;;0.00;0.00;;;;;11.71;91.07;99324.25;4979963;28;47184;-78
2024/01/02 04:46:38;;;;;;;;;0.00;0.00;;;;;11.70;90.57;99321.72;4992652;28;45334;-82
2024/01/02 04:49:03;;;;;;;;;0.00;0.00;;;;;11.67;90.82;99324.66;4995255;28;45322;-81
2024/01/02 04:51:29;;;;;;;;;0.00;0.00;;;;;11.68;91.26;99321.84;4995534;28;45229;-80
2024/01/02 04:53:54;;;;;;;;;0.00;0.00;;;;;11.68;90.67;99319.19;4995362;27;45229;-81
2024/01/02 04:56:20;;;;;;;;;0.00;0.00;;;;;11.62;90.89;99317.03;4995323;28;54583;-81
2024/01/02 04:58:45;;;;;;;;;0.00;0.00;;;;;11.59;90.74;99319.09;4995884;28;45169;-80
2024/01/02 05:01:10;;;;;;;;;0.00;0.00;;;;;11.63;90.88;99329.38;4981934;27;48634;-83
2024/01/02 05:03:36;;;;;;;;;0.00;0.00;;;;;11.61;90.79;99322.50;4976533;28;45617;-80
2024/01/02 05:06:01;;;;;;;;;0.00;0.00;;;;;11.43;91.52;99304.34;4975807;28;45326;-82
2024/01/02 05:08:26;;;;;;;;;0.33;0.00;;;;;11.51;92.00;99317.06;4975704;28;45524;-79
2024/01/02 05:10:52;;;;;;;;;0.00;0.00;;;;;11.54;91.11;99332.78;4975691;28;49024;-81
2024/01/02 05:13:18;;;;;;;;;0.00;0.00;;;;;11.49;91.14;99319.00;4975577;28;45344;-82
2024/01/02 05:15:43;;;;;;;;;0.00;0.00;;;;;11.52;91.66;99330.25;4975219;28;45505;-81
2024/01/02 05:18:09;;;;;;;;;0.00;0.00;;;;;11.41;91.76;99313.44;4976409;28;45376;-82
2024/01/02 05:20:34;;;;;;;;;0.00;0.00;;;;;11.52;90.80;99316.09;4975416;28;52614;-82
2024/01/02 05:23:03;;;;;;;;;0.00;0.00;;;;;11.46;92.04;99311.25;4975892;28;46525;-81
2024/01/02 05:25:31;;;;;;;;;0.00;0.00;;;;;11.38;91.33;99311.00;4990504;28;45324;-80
2024/01/02 05:27:57;;;;;;;;;0.00;0.00;;;;;11.42;91.97;99317.78;4975468;28;45488;-80
2024/01/02 05:30:22;;;;;;;;;0.00;0.00;;;;;11.34;91.61;99305.09;4975569;28;45565;-80
2024/01/02 05:32:47;;;;;;;;;0.00;0.00;;;;;11.37;91.59;99314.66;4975120;28;45320;-79
2024/01/02 05:35:13;;;;;;;;;0.00;0.00;;;;;11.19;92.40;99292.97;4978759;28;66044;-78
2024/01/02 05:37:38;;;;;;;;;0.00;0.00;;;;;11.30;92.23;99308.09;4976592;28;45433;-78
2024/01/02 05:40:04;;;;;;;;;0.00;0.00;;;;;11.14;91.83;99279.22;4976866;28;45290;-80
2024/01/02 05:42:30;;;;;;;;;0.00;0.00;;;;;11.29;91.67;99303.75;4977508;28;45327;-80
2024/01/02 05:44:55;;;;;;;;;0.67;0.00;;;;;11.27;91.76;99295.03;4977206;28;45370;-80
2024/01/02 05:47:20;;;;;;;;;0.00;0.00;;;;;11.27;91.24;99303.03;4976303;28;46249;-80
2024/01/02 05:49:45;;;;;;;;;0.33;0.00;;;;;11.23;92.00;99297.97;4976262;28;45429;-80
2024/01/02 05:52:11;;;;;;;;;0.00;0.00;;;;;11.26;91.38;99312.00;4975639;28;45739;-82
2024/01/02 05:54:36;;;;;;;;;0.00;0.00;;;;;11.23;91.64;99299.78;4975831;28;45307;-81
2024/01/02 05:57:02;;;;;;;;;0.00;0.00;;;;;11.24;91.61;99304.13;4975608;28;46081;-81
2024/01/02 05:59:27;;;;;;;;;0.00;0.00;;;;;11.25;90.74;99304.97;4975246;28;45165;-86
2024/01/02 06:01:53;;;;;;;;;0.00;0.00;;;;;11.15;91.36;99283.56;4974967;28;45291;-82
2024/01/02 06:04:18;;;;;;;;;0.67;0.00;;;;;11.23;90.82;99297.97;4974488;28;52220;-81
2024/01/02 06:06:43;;;;;;;;;0.00;0.00;;;;;11.23;90.68;99307.75;4975528;28;45362;-82
2024/01/02 06:09:09;;;;;;;;;0.00;0.00;;;;;11.22;90.55;99300.75;4975880;28;45375;-81
2024/01/02 06:11:35;;;;;;;;;0.00;0.00;;;;;11.17;91.12;99290.44;4975029;28;46067;-80
2024/01/02 06:14:01;;;;;;;;;0.00;0.00;;;;;11.14;91.05;99288.03;4974288;28;45312;-81
2024/01/02 06:16:27;;;;;;;;;0.00;0.00;;;;;11.03;91.06;99277.38;4975194;28;45452;-82
2024/01/02 06:18:52;;;;;;;;;0.00;0.00;;;;;11.02;91.63;99274.84;4974985;27;45543;-79
2024/01/02 06:21:17;;;;;;;;;0.33;0.33;;;;;11.10;91.47;99302.56;4973955;28;63783;-80
2024/01/02 06:23:43;;;;;;;;;0.00;0.00;;;;;11.05;90.82;99280.78;4974383;28;51185;-81
2024/01/02 06:26:08;;;;;;;;;0.00;0.00;;;;;11.15;91.18;99299.53;4975377;28;45428;-80
2024/01/02 06:28:33;;;;;;;;;0.00;0.00;;;;;11.08;91.59;99288.53;4974779;28;45547;-81
2024/01/02 06:31:05;;;;;;;;;1.00;0.00;;;;;11.10;91.38;99291.91;4974370;28;64724;-79
2024/01/02 06:33:30;;;;;;;;;0.00;0.00;;;;;11.09;91.53;99289.38;4977622;28;45324;-80
2024/01/02 06:35:56;;;;;;;;;0.00;0.00;;;;;10.96;91.91;99262.91;4993795;27;45471;-78
2024/01/02 06:38:21;;;;;;;;;0.00;0.00;;;;;11.07;92.08;99273.53;4996083;27;45626;-79
2024/01/02 06:40:46;;;;;;;;;0.00;0.00;;;;;11.01;92.00;99266.03;4989667;28;45316;-80
2024/01/02 06:43:11;;;;;;;;;0.00;0.00;;;;;11.07;91.41;99270.88;4975141;28;56875;-80
2024/01/02 06:45:37;;;;;;;;;0.00;0.00;;;;;11.04;91.32;99268.44;4978305;28;45434;-80
2024/01/02 06:48:03;;;;;;;;;0.00;0.00;;;;;11.02;91.20;99269.53;4984099;27;45395;-81
2024/01/02 06:50:28;;;;;;;;;0.00;0.00;;;;;11.03;91.48;99261.44;4979707;28;45915;-81
2024/01/02 06:52:53;;;;;;;;;0.00;0.00;;;;;10.99;91.42;99252.00;4976658;28;64879;-82
2024/01/02 06:55:19;;;;;;;;;0.00;0.00;;;;;11.02;91.40;99261.56;4974675;28;45358;-82
2024/01/02 06:57:44;;;;;;;;;0.00;0.00;;;;;10.99;91.74;99267.97;4976083;28;45372;-81
2024/01/02 07:00:10;;;;;;;;;0.00;0.00;;;;;10.99;91.48;99259.97;5003559;28;46118;-81
2024/01/02 07:02:36;;;;;;;;;0.00;0.00;;;;;10.97;91.39;99253.09;4995473;28;45354;-83
2024/01/02 07:05:03;;;;;;;;;0.00;0.00;;;;;10.98;91.63;99254.78;4995545;27;45226;-78
2024/01/02 07:07:28;;;;;;;;;3.00;0.00;;;;;10.96;91.37;99246.94;4994914;28;45243;-79
2024/01/02 07:09:53;;;;;;;;;0.00;0.00;;;;;10.88;91.44;99244.88;4993948;28;45328;-80
2024/01/02 07:12:19;;;;;;;;;0.00;0.00;;;;;10.96;91.84;99252.25;4996577;28;45387;-85
2024/01/02 07:14:44;;;;;;;;;0.00;0.00;;;;;10.97;91.92;99240.66;4998054;28;45221;-83
2024/01/02 07:17:10;;;;;;;;;0.00;0.00;;;;;10.98;91.63;99245.00;4998461;28;45513;-82
2024/01/02 07:19:36;;;;;;;;;0.00;0.00;;;;;10.98;91.98;99244.16;4998493;28;45290;-86
2024/01/02 07:22:02;;;;;;;;;0.00;0.00;;;;;10.84;92.16;99210.66;4994963;28;45427;-80
2024/01/02 07:24:27;;;;;;;;;0.00;0.00;;;;;10.95;91.33;99239.06;4992648;27;45471;-80
2024/01/02 07:26:53;;;;;;;;;0.00;0.00;;;;;10.86;91.59;99222.03;4995273;28;45597;-81
2024/01/02 07:29:18;;;;;;;;;0.00;0.00;;;;;10.97;92.14;99232.66;4993810;28;45410;-82
2024/01/02 07:31:44;;;;;;;;;0.00;0.00;;;;;10.90;91.66;99213.66;4983717;27;45557;-86
2024/01/02 07:34:12;;;;;;;;;0.00;0.00;;;;;10.93;91.59;99223.22;4989113;28;47375;-83
2024/01/02 07:36:38;;;;;;;;;0.00;0.00;;;;;11.04;92.15;99233.84;4992654;28;45564;-82
2024/01/02 07:39:03;;;;;;;;;0.00;0.00;;;;;10.99;91.24;99214.75;4994050;27;45257;-83
2024/01/02 07:41:28;;;;;;;;;0.00;0.00;;;;;10.98;91.36;99221.06;4994980;27;45426;-83
2024/01/02 07:43:54;;;;;;;;;0.00;0.00;;;;;11.09;91.06;99226.38;5003859;27;48772;-80
2024/01/02 07:46:19;;;;;;;;;0.00;0.00;;;;;11.07;91.80;99228.31;4993287;28;45365;-81
2024/01/02 07:48:45;;;;;;;;;0.00;0.00;;;;;11.07;91.60;99223.00;4992043;28;63462;-83
2024/01/02 07:51:10;;;;;;;;;1.00;0.00;;;;;11.03;91.62;99232.16;4993272;28;45232;-79
2024/01/02 07:53:36;;;;;;;;;1.00;0.00;;;;;11.07;91.34;99228.31;4993771;27;45301;-82
2024/01/02 07:56:05;;;;;;;;;0.00;0.00;;;;;11.08;91.80;99229.16;4993674;28;45607;-81
2024/01/02 07:58:30;;;;;;;;;0.00;0.00;;;;;11.01;92.07;99218.13;4993864;28;45363;-79
2024/01/02 08:00:55;;;;;;;;;0.00;0.00;;;;;11.07;92.40;99228.31;4993741;28;45305;-82
2024/01/02 08:03:21;;;;;;;;;0.00;0.00;;;;;11.08;92.44;99216.69;4996573;28;50653;-81
2024/01/02 08:05:47;;;;;;;;;0.00;0.00;;;;;11.03;91.70;99215.34;4997240;28;45437;-82
2024/01/02 08:08:12;;;;;;;;;0.00;0.00;;;;;11.12;91.41;99212.81;4996560;27;46146;-82
2024/01/02 08:10:37;;;;;;;;;0.00;0.00;;;;;11.12;91.90;99220.78;4998964;27;45488;-84
2024/01/02 08:13:03;;;;;;;;;0.00;0.00;;;;;11.15;91.98;99215.22;5005234;27;45436;-84
2024/01/02 08:15:28;;;;;;;;;0.00;0.00;;;;;11.14;91.46;99202.88;4996542;27;45305;-84
2024/01/02 08:17:53;;;;;;;;;0.00;0.00;;;;;11.12;91.66;99201.31;4995771;28;63471;-80
2024/01/02 08:20:19;;;;;;;;;0.00;0.00;;;;;11.02;92.16;99182.59;4995832;28;60940;-84
2024/01/02 08:22:44;;;;;;;;;0.00;0.00;;;;;11.14;91.85;99191.41;4998199;28;63223;-85
2024/01/02 08:25:09;;;;;;;;;2.00;0.00;;;;;11.14;92.01;99202.03;4997077;27;57649;-82
2024/01/02 08:27:35;;;;;;;;;0.00;0.00;;;;;11.13;91.75;99200.34;4997846;28;65086;-85
2024/01/02 08:30:01;;;;;;;;;0.00;0.00;;;;;11.15;92.05;99201.06;4999267;27;45223;-80
2024/01/02 08:32:28;;;;;;;;;0.00;0.00;;;;;11.20;91.54;99207.72;5004561;28;45540;-83
2024/01/02 08:34:54;;;;;;;;;0.00;0.00;;;;;11.15;91.42;99198.41;5003811;28;45488;-83
2024/01/02 08:37:19;;;;;;;;;0.00;0.00;;;;;11.17;91.44;99181.34;5010967;28;45361;-86
2024/01/02 08:39:44;;;;;;;;;1.67;0.33;;;;;11.22;91.78;99197.81;5019020;28;45353;-85
2024/01/02 08:42:10;;;;;;;;;2.00;0.00;;;;;11.14;91.86;99189.59;5012231;27;45447;-83
2024/01/02 08:44:35;;;;;;;;;1.00;0.00;;;;;11.16;91.80;99190.31;4999012;27;45415;-81
2024/01/02 08:47:01;;;;;;;;;0.00;0.00;;;;;11.24;91.94;99187.03;5010126;27;52192;-82
2024/01/02 08:49:27;;;;;;;;;0.00;0.00;;;;;11.12;91.77;99164.06;5064754;27;45764;-82
2024/01/02 08:51:52;;;;;;;;;3.00;0.00;;;;;11.24;91.41;99171.06;5019280;28;45274;-80
2024/01/02 08:54:18;;;;;;;;;0.00;0.00;;;;;11.23;91.85;99162.25;5015396;28;45223;-83
2024/01/02 08:56:43;;;;;;;;;0.00;0.00;;;;;11.25;91.77;99166.59;4999487;28;45634;-83
2024/01/02 08:59:08;;;;;;;;;0.00;0.00;;;;;11.23;92.18;99169.38;5000585;27;48061;-85
2024/01/02 09:01:34;;;;;;;;;0.00;0.00;;;;;11.19;92.04;99160.78;5016355;27;45406;-80
2024/01/02 09:03:59;;;;;;;;;0.00;0.00;;;;;11.28;91.97;99155.69;4997965;27;45621;-83
2024/01/02 09:06:24;;;;;;;;;0.00;0.00;;;;;11.22;92.21;99149.91;5081496;27;48251;-86
2024/01/02 09:08:50;;;;;;;;;0.00;0.00;;;;;11.29;92.00;99157.38;4996364;27;52869;-85
2024/01/02 09:11:15;;;;;;;;;0.00;0.00;;;;;11.22;91.90;99135.75;5004792;27;45309;-85
2024/01/02 09:13:41;;;;;;;;;0.00;0.00;;;;;11.33;91.97;99164.13;5049478;27;45183;-83
2024/01/02 09:16:07;;;;;;;;;0.00;0.00;;;;;11.30;92.27;99129.78;5017296;27;46123;-83
2024/01/02 09:18:33;;;;;;;;;1.00;0.00;;;;;11.24;91.84;99136.47;5017384;27;45545;-83
2024/01/02 09:20:58;;;;;;;;;0.00;0.00;;;;;11.30;91.91;99143.09;5016690;27;45353;-82
2024/01/02 09:23:23;;;;;;;;;0.00;0.00;;;;;11.11;92.03;99101.19;5018413;27;45656;-83
2024/01/02 09:25:51;;;;;;;;;0.00;0.00;;;;;11.23;92.04;99121.47;5016676;27;58318;-81
2024/01/02 09:28:18;;;;;;;;;0.00;0.00;;;;;11.39;92.01;99127.22;5016985;27;45306;-84
2024/01/02 09:30:44;;;;;;;;;0.00;0.00;;;;;11.29;91.86;99122.78;5017296;27;44755;-81
2024/01/02 09:33:10;;;;;;;;;0.00;0.00;;;;;11.41;92.61;99113.78;5021305;27;45653;-84
2024/01/02 09:35:36;;;;;;;;;0.00;0.00;;;;;11.45;91.87;99150.66;5021439;28;46193;-82
2024/01/02 09:38:04;;;;;;;;;1.00;0.00;;;;;11.32;92.44;99118.03;5020443;27;45279;-81
2024/01/02 09:41:01;;;;;;;;;1.00;0.00;;;;;11.46;92.05;99127.56;5020217;27;45379;-82
2024/01/02 09:43:55;;;;;;;;;0.00;0.00;;;;;11.49;92.28;99129.97;5025784;27;44896;-84
2024/01/02 09:46:47;;;;;;;;;0.00;0.00;;;;;11.47;92.18;99135.44;5024525;28;45297;-84
2024/01/02 09:49:40;;;;;;;;;0.00;0.00;;;;;11.55;92.56;99126.78;5018506;28;45430;-83
2024/01/02 09:52:31;;;;;;;;;1.00;1.00;;;;;11.63;92.04;99131.50;5017852;28;45439;-81
2024/01/02 09:55:06;;;;;;;;;0.00;0.00;;;;;11.64;91.85;99126.03;5016795;28;45417;-84
2024/01/02 09:57:46;;;;;;;;;0.00;0.00;;;;;11.57;91.88;99114.19;5015869;28;45831;-83
2024/01/02 10:00:26;;;;;;;;;0.00;0.00;;;;;11.64;91.91;99134.00;5005468;28;45431;-81
2024/01/02 10:03:10;;;;;;;;;0.00;0.00;;;;;11.67;91.72;99107.13;4974942;28;45583;-83
2024/01/02 10:05:42;;;;;;;;;0.00;0.00;;;;;11.69;91.79;99126.47;4985723;28;45385;-83
2024/01/02 10:08:36;;;;;;;;;0.00;0.00;;;;;11.69;91.84;99129.13;4998300;28;46857;-84
2024/01/02 10:11:40;;;;;;;;;0.33;0.00;;;;;11.68;92.15;99130.13;5024410;27;45401;-82
2024/01/02 10:14:17;;;;;;;;;0.00;0.00;;;;;11.74;91.22;99116.31;5005302;27;45188;-83
2024/01/02 10:16:52;;;;;;;;;0.00;0.00;;;;;11.73;91.62;99122.59;5000293;27;45538;-84
2024/01/02 10:19:43;;;;;;;;;0.00;0.00;;;;;11.55;91.17;99097.50;5001302;28;46116;-86
2024/01/02 10:22:25;;;;;;;;;2.00;0.00;;;;;11.72;91.38;99123.56;5001050;28;44708;-82
2024/01/02 10:24:56;;;;;;;;;1.00;0.00;;;;;11.62;91.66;99098.69;4998686;28;45428;-83
2024/01/02 10:27:34;;;;;;;;;0.00;0.00;;;;;11.74;91.88;99112.78;5011898;27;45547;-84
2024/01/02 10:30:11;;;;;;;;;0.00;0.00;;;;;11.71;92.03;99102.38;5010364;28;46286;-83
2024/01/02 10:32:41;;;;;;;;;0.00;0.00;;;;;11.70;91.71;99109.53;4994533;27;45349;-85
2024/01/02 10:35:21;;;;;;;;;0.00;0.00;;;;;11.75;91.97;99109.16;4996984;28;45522;-85
2024/01/02 10:38:18;;;;;;;;;0.00;0.00;;;;;11.74;91.60;99104.81;4985733;28;45511;-86
2024/01/02 10:40:50;;;;;;;;;0.00;0.00;;;;;11.68;91.71;99111.47;4996467;28;45960;-86
2024/01/02 10:43:18;;;;;;;;;1.00;1.00;;;;;11.71;92.51;99111.22;4995015;28;45445;-81
2024/01/02 10:46:25;;;;;;;;;0.00;0.00;;;;;11.72;92.29;99104.94;4993450;27;45355;-82
2024/01/02 10:49:17;;;;;;;;;0.00;0.00;;;;;11.76;92.22;99103.69;5017631;27;45896;-82
2024/01/02 10:51:50;;;;;;;;;0.00;0.00;;;;;11.68;92.02;99076.84;5032899;27;45478;-82
2024/01/02 10:54:51;;;;;;;;;0.00;0.00;;;;;11.67;92.02;99082.31;5005950;28;45436;-82
2024/01/02 10:57:37;;;;;;;;;0.00;0.00;;;;;11.74;91.76;99078.16;5015837;28;45531;-87
2024/01/02 11:00:08;;;;;;;;;0.00;0.00;;;;;11.68;91.95;99068.88;5013953;28;45465;-83
2024/01/02 11:02:51;;;;;;;;;1.67;0.00;;;;;11.60;91.86;99052.72;5014149;28;45332;-84
2024/01/02 11:05:27;;;;;;;;;1.00;0.00;;;;;11.74;92.00;99072.84;5003580;28;45309;-84
2024/01/02 11:08:29;;;;;;;;;0.00;0.00;;;;;11.70;92.19;99072.22;5011278;27;45396;-85
2024/01/02 11:11:03;;;;;;;;;2.00;0.00;;;;;11.72;92.03;99075.63;5009715;27;45366;-85
2024/01/02 11:13:30;;;;;;;;;1.00;1.00;;;;;11.73;92.03;99048.03;4995464;27;45454;-85
2024/01/02 11:16:02;;;;;;;;;0.00;0.00;;;;;11.51;92.18;99030.38;5000734;28;46505;-84
2024/01/02 11:18:32;;;;;;;;;0.00;0.00;;;;;11.73;92.09;99064.00;4994854;27;45473;-84
2024/01/02 11:21:12;;;;;;;;;0.00;0.00;;;;;11.70;92.22;99055.41;4994459;28;45230;-86
2024/01/02 11:23:40;;;;;;;;;0.00;0.00;;;;;11.74;91.80;99057.72;4996803;28;46445;-84
2024/01/02 11:26:12;;;;;;;;;0.00;0.00;;;;;11.73;91.46;99055.19;4996856;28;45960;-84
2024/01/02 11:28:40;;;;;;;;;0.33;0.33;;;;;11.78;91.48;99052.97;4997245;28;45341;-82
2024/01/02 11:31:09;;;;;;;;;0.00;0.00;;;;;11.57;91.87;99018.34;4997389;28;45954;-84
2024/01/02 11:33:55;;;;;;;;;0.00;0.00;;;;;11.70;91.60;99034.94;5005573;27;45396;-81
2024/01/02 11:36:36;;;;;;;;;0.00;0.00;;;;;11.75;91.55;99031.91;4979176;28;45299;-82